Time;durP1;ratioP1;P1;durP2;ratioP2;P2;SDS_P1;SDS_P2;PMS_P1;PMS_P2;Temp;Humidity;BMP_temperature;BMP_pressure;BME280_temperature;BME280_humidity;BME280_pressure;Samples;Min_cycle;Max_cycle;Signal;HPM_P1;HPM_P2
2020/12/13 00:00:44;;;;;;;33.40;16.57;;;8.20;94.00;;;;;;5033513;28;20504;-77
2020/12/13 00:03:09;;;;;;;29.87;15.57;;;8.20;94.00;;;;;;5024815;28;20191;-78
2020/12/13 00:05:35;;;;;;;28.53;14.83;;;8.20;94.00;;;;;;5013630;28;20721;-77
2020/12/13 00:08:01;;;;;;;32.53;15.50;;;8.20;94.00;;;;;;5014156;28;20226;-77
2020/12/13 00:10:27;;;;;;;30.70;16.40;;;8.20;94.00;;;;;;5015138;28;20406;-77
2020/12/13 00:12:53;;;;;;;33.23;17.03;;;8.20;94.00;;;;;;5014486;28;20446;-78
2020/12/13 00:15:18;;;;;;;37.47;17.80;;;8.20;94.10;;;;;;5016414;28;20163;-76
2020/12/13 00:17:45;;;;;;;32.30;16.67;;;8.20;94.10;;;;;;5025741;28;20203;-77
2020/12/13 00:20:10;;;;;;;37.03;17.60;;;8.20;94.10;;;;;;5033200;28;20170;-77
2020/12/13 00:22:36;;;;;;;30.17;16.93;;;8.20;94.10;;;;;;5031794;28;21063;-77
2020/12/13 00:25:03;;;;;;;33.77;17.20;;;8.20;94.10;;;;;;5013577;28;20640;-78
2020/12/13 00:27:28;;;;;;;32.63;15.33;;;8.20;94.20;;;;;;5012846;28;20191;-75
2020/12/13 00:29:54;;;;;;;31.50;16.00;;;8.20;94.20;;;;;;5012308;28;20440;-77
2020/12/13 00:32:19;;;;;;;40.50;17.53;;;8.20;94.20;;;;;;5012029;28;20237;-76
2020/12/13 00:34:45;;;;;;;30.10;15.50;;;8.20;94.20;;;;;;5012426;28;20194;-77
2020/12/13 00:37:11;;;;;;;35.80;17.00;;;8.20;94.20;;;;;;5012471;28;20179;-79
2020/12/13 00:39:38;;;;;;;32.03;16.03;;;8.20;94.20;;;;;;5017665;28;20279;-77
2020/12/13 00:42:05;;;;;;;28.67;16.53;;;8.20;94.20;;;;;;5033636;28;20174;-78
2020/12/13 00:44:31;;;;;;;28.87;14.93;;;8.20;94.20;;;;;;5032221;28;20401;-77
2020/12/13 00:46:56;;;;;;;29.47;14.43;;;8.20;94.20;;;;;;5014687;28;20450;-77
2020/12/13 00:49:22;;;;;;;28.50;13.97;;;8.20;94.20;;;;;;5026109;28;20797;-75
2020/12/13 00:51:48;;;;;;;32.90;15.47;;;8.30;94.20;;;;;;5012841;28;20641;-77
2020/12/13 00:54:14;;;;;;;32.40;15.30;;;8.30;94.20;;;;;;5011916;28;20221;-77
2020/12/13 00:56:43;;;;;;;26.80;13.40;;;8.30;94.20;;;;;;5011504;28;20437;-77
2020/12/13 00:59:09;;;;;;;33.40;15.37;;;8.30;94.20;;;;;;5017368;28;20547;-77
2020/12/13 01:01:35;;;;;;;24.83;14.07;;;8.30;94.20;;;;;;5031917;28;20748;-75
2020/12/13 01:04:00;;;;;;;25.60;15.20;;;8.30;94.20;;;;;;5032960;28;20238;-75
2020/12/13 01:06:26;;;;;;;28.27;16.27;;;8.20;94.10;;;;;;5032862;28;20588;-77
2020/12/13 01:08:53;;;;;;;33.40;17.37;;;8.30;94.10;;;;;;5031479;28;20166;-75
2020/12/13 01:11:27;;;;;;;27.73;15.17;;;8.30;94.20;;;;;;5032759;28;20417;-78
2020/12/13 01:13:54;;;;;;;31.53;16.83;;;8.30;94.20;;;;;;5020191;28;21103;-78
2020/12/13 01:16:20;;;;;;;33.00;14.67;;;8.30;94.10;;;;;;5010002;28;20414;-75
2020/12/13 01:18:46;;;;;;;29.37;15.37;;;8.30;94.10;;;;;;5027889;28;20955;-75
2020/12/13 01:21:25;;;;;;;29.03;14.20;;;8.30;94.10;;;;;;5030624;28;20408;-77
2020/12/13 01:23:54;;;;;;;30.40;16.07;;;8.30;94.10;;;;;;5030054;28;20502;-77
2020/12/13 01:26:21;;;;;;;32.40;14.20;;;8.30;94.10;;;;;;5030929;28;20449;-76
2020/12/13 01:28:47;;;;;;;29.43;15.37;;;8.30;94.10;;;;;;5025457;28;20516;-77
2020/12/13 01:31:15;;;;;;;36.80;15.60;;;8.30;94.20;;;;;;5011619;28;20413;-77
2020/12/13 01:33:42;;;;;;;25.50;13.40;;;8.30;94.20;;;;;;5010072;28;20442;-76
2020/12/13 01:36:16;;;;;;;30.17;15.80;;;8.30;94.20;;;;;;5011076;28;20492;-76
2020/12/13 01:38:41;;;;;;;30.57;13.77;;;8.30;94.20;;;;;;5009585;28;20492;-75
2020/12/13 01:41:07;;;;;;;29.77;16.23;;;8.30;94.30;;;;;;5012741;28;20818;-76
2020/12/13 01:43:33;;;;;;;31.53;16.63;;;8.30;94.30;;;;;;5030699;28;20198;-76
2020/12/13 01:45:59;;;;;;;24.20;14.30;;;8.30;94.30;;;;;;5010886;28;20245;-76
2020/12/13 01:48:26;;;;;;;28.90;14.83;;;8.30;94.70;;;;;;5014025;28;20418;-75
2020/12/13 01:51:21;;;;;;;29.20;15.17;;;8.30;94.30;;;;;;5012073;28;20494;-76
2020/12/13 01:53:49;;;;;;;24.30;13.10;;;8.30;94.40;;;;;;5027120;28;20463;-76
2020/12/13 01:56:15;;;;;;;31.90;15.73;;;8.20;94.40;;;;;;5031983;28;20496;-76
2020/12/13 01:58:43;;;;;;;25.60;13.30;;;8.20;94.40;;;;;;5028448;28;20944;-77
2020/12/13 02:01:10;;;;;;;29.60;14.87;;;8.20;94.40;;;;;;5014786;28;20452;-77
2020/12/13 02:03:58;;;;;;;27.97;13.67;;;8.20;94.50;;;;;;5014000;28;20458;-77
2020/12/13 02:06:28;;;;;;;30.00;16.10;;;8.20;94.50;;;;;;5018377;28;20485;-78
2020/12/13 02:08:54;;;;;;;29.13;15.40;;;8.20;94.50;;;;;;5033582;28;20409;-75
2020/12/13 02:11:20;;;;;;;24.53;13.80;;;8.20;94.50;;;;;;5033600;28;20491;-77
2020/12/13 02:13:50;;;;;;;32.33;14.90;;;8.30;94.60;;;;;;5032868;28;20281;-76
2020/12/13 02:16:17;;;;;;;29.60;15.07;;;8.20;94.50;;;;;;5033787;28;20168;-75
2020/12/13 02:18:44;;;;;;;27.70;15.30;;;8.20;94.50;;;;;;5033210;28;20411;-75
2020/12/13 02:21:11;;;;;;;30.60;15.67;;;8.30;94.60;;;;;;5022767;28;21001;-78
2020/12/13 02:23:41;;;;;;;31.70;15.30;;;8.30;94.60;;;;;;5011828;28;20453;-76
2020/12/13 02:26:08;;;;;;;32.03;16.57;;;8.20;94.50;;;;;;5027402;28;20865;-75
2020/12/13 02:28:35;;;;;;;26.87;14.33;;;8.20;94.50;;;;;;5033528;28;20406;-75
2020/12/13 02:31:05;;;;;;;27.70;15.40;;;8.20;94.50;;;;;;5048392;28;20405;-76
2020/12/13 02:33:31;;;;;;;28.20;16.10;;;8.20;94.60;;;;;;5032983;28;20437;-78
2020/12/13 02:35:58;;;;;;;33.93;15.23;;;8.20;94.60;;;;;;5032336;28;20482;-77
2020/12/13 02:38:23;;;;;;;34.33;16.60;;;8.20;94.60;;;;;;5033318;28;20420;-75
2020/12/13 02:40:49;;;;;;;38.63;18.13;;;8.20;94.60;;;;;;5013891;28;20417;-76
2020/12/13 02:43:15;;;;;;;29.43;16.53;;;8.20;94.60;;;;;;5012076;28;20672;-77
2020/12/13 02:45:40;;;;;;;29.03;16.00;;;8.20;94.60;;;;;;5011973;28;20206;-76
2020/12/13 02:48:06;;;;;;;25.43;16.20;;;8.20;94.70;;;;;;5017390;28;20228;-75
2020/12/13 02:50:32;;;;;;;21.70;13.10;;;8.20;94.60;;;;;;5011824;28;20514;-75
2020/12/13 02:52:58;;;;;;;27.20;15.57;;;8.20;94.70;;;;;;5013320;28;20222;-76
2020/12/13 02:55:24;;;;;;;31.13;15.47;;;8.20;94.70;;;;;;5012853;28;20190;-76
2020/12/13 02:57:50;;;;;;;27.63;14.23;;;8.20;94.70;;;;;;4995925;28;20406;-76
2020/12/13 03:00:16;;;;;;;25.60;13.40;;;8.20;94.60;;;;;;5012902;28;20155;-75
2020/12/13 03:02:42;;;;;;;33.87;15.93;;;8.20;94.60;;;;;;5014254;28;20472;-76
2020/12/13 03:05:08;;;;;;;33.80;16.90;;;8.20;94.60;;;;;;5012741;28;20497;-77
2020/12/13 03:07:33;;;;;;;27.10;15.70;;;8.20;94.60;;;;;;5031167;28;20202;-77
2020/12/13 03:09:59;;;;;;;29.10;14.10;;;8.20;94.60;;;;;;5032926;28;20178;-75
2020/12/13 03:12:25;;;;;;;31.80;16.07;;;8.20;94.60;;;;;;5031504;28;20190;-77
2020/12/13 03:14:53;;;;;;;26.10;14.97;;;8.20;94.60;;;;;;5032409;28;20167;-77
2020/12/13 03:17:18;;;;;;;26.23;15.03;;;8.20;94.60;;;;;;5020081;28;20422;-76
2020/12/13 03:19:44;;;;;;;28.50;14.10;;;8.20;94.50;;;;;;5029347;28;20520;-76
2020/12/13 03:22:09;;;;;;;34.17;17.87;;;8.20;94.60;;;;;;5033006;28;20216;-77
2020/12/13 03:24:35;;;;;;;31.60;16.90;;;8.20;94.50;;;;;;5032033;28;20321;-77
2020/12/13 03:27:01;;;;;;;25.10;15.13;;;8.20;94.70;;;;;;5032724;28;20285;-77
2020/12/13 03:29:26;;;;;;;28.80;15.40;;;8.20;94.50;;;;;;5032497;28;20166;-75
2020/12/13 03:31:52;;;;;;;29.03;14.73;;;8.20;94.50;;;;;;5015973;28;20266;-77
2020/12/13 03:34:18;;;;;;;28.30;14.70;;;8.20;94.50;;;;;;5012168;28;20198;-75
2020/12/13 03:36:43;;;;;;;30.07;15.67;;;8.20;94.50;;;;;;5012420;28;20178;-76
2020/12/13 03:39:09;;;;;;;25.23;12.77;;;8.20;94.50;;;;;;5012431;28;20175;-76
2020/12/13 03:41:35;;;;;;;31.63;15.80;;;8.20;94.40;;;;;;5012285;28;20167;-75
2020/12/13 03:44:00;;;;;;;30.03;17.40;;;8.20;94.40;;;;;;5012228;28;20191;-77
2020/12/13 03:46:26;;;;;;;26.47;14.00;;;8.20;94.40;;;;;;5031519;28;20233;-75
2020/12/13 03:48:52;;;;;;;28.47;14.10;;;8.20;94.30;;;;;;5027471;28;20171;-76
2020/12/13 03:51:17;;;;;;;27.27;15.57;;;8.20;94.30;;;;;;5064671;23;20221;-79
2020/12/13 03:53:43;;;;;;;25.97;15.43;;;8.20;94.30;;;;;;5066335;28;20170;-80
2020/12/13 03:56:08;;;;;;;27.27;14.10;;;8.20;94.30;;;;;;5048462;28;20319;-79
2020/12/13 03:58:34;;;;;;;29.53;15.23;;;8.20;94.30;;;;;;5065927;28;20173;-80
2020/12/13 04:01:00;;;;;;;28.27;15.27;;;8.20;94.30;;;;;;5059982;28;20189;-80
2020/12/13 04:03:25;;;;;;;24.00;14.40;;;8.20;94.20;;;;;;5092460;28;20201;-80
2020/12/13 04:05:51;;;;;;;28.10;14.63;;;8.20;94.20;;;;;;5093213;28;20241;-80
2020/12/13 04:08:17;;;;;;;24.40;13.60;;;8.20;94.20;;;;;;5075822;28;20170;-79
2020/12/13 04:10:43;;;;;;;27.63;15.10;;;8.20;94.10;;;;;;5076711;28;20212;-80
2020/12/13 04:13:08;;;;;;;28.23;14.70;;;8.20;94.20;;;;;;5077329;28;20172;-80
2020/12/13 04:15:34;;;;;;;24.60;13.60;;;8.20;94.10;;;;;;5077634;28;20442;-80
2020/12/13 04:18:00;;;;;;;26.40;13.50;;;8.20;94.10;;;;;;5077027;28;20157;-80
2020/12/13 04:20:26;;;;;;;30.73;14.77;;;8.20;94.00;;;;;;5092001;28;20192;-78
2020/12/13 04:22:52;;;;;;;24.23;12.40;;;8.20;94.00;;;;;;5094253;28;20170;-79
2020/12/13 04:25:19;;;;;;;23.60;12.90;;;8.20;94.00;;;;;;5093181;28;20497;-79
2020/12/13 04:27:45;;;;;;;23.73;13.50;;;8.20;94.00;;;;;;5094970;28;20177;-81
2020/12/13 04:30:11;;;;;;;24.00;13.97;;;8.20;94.00;;;;;;5088977;28;20494;-80
2020/12/13 04:32:37;;;;;;;25.90;13.97;;;8.20;93.90;;;;;;5090696;28;20395;-81
2020/12/13 04:35:04;;;;;;;25.33;12.00;;;8.20;93.90;;;;;;5073176;28;20411;-81
2020/12/13 04:37:30;;;;;;;23.13;13.10;;;8.20;93.90;;;;;;5081160;28;20232;-79
2020/12/13 04:39:55;;;;;;;20.67;11.30;;;8.20;93.90;;;;;;5077776;28;20425;-80
2020/12/13 04:42:22;;;;;;;18.73;10.80;;;8.20;93.80;;;;;;5090994;28;20678;-79
2020/12/13 04:44:49;;;;;;;21.83;11.77;;;8.20;93.80;;;;;;5069391;28;20169;-80
2020/12/13 04:47:17;;;;;;;22.57;11.80;;;8.20;93.80;;;;;;5088462;28;20473;-79
2020/12/13 04:49:46;;;;;;;18.83;9.90;;;8.20;93.80;;;;;;5090921;28;20470;-81
2020/12/13 04:52:13;;;;;;;21.67;10.80;;;8.20;93.80;;;;;;5090511;28;20430;-79
2020/12/13 04:54:51;;;;;;;15.70;10.07;;;8.20;93.70;;;;;;5088397;28;20465;-80
2020/12/13 04:57:18;;;;;;;19.00;10.83;;;8.20;93.70;;;;;;5090582;28;20434;-80
2020/12/13 04:59:47;;;;;;;14.87;9.47;;;8.20;93.70;;;;;;5088338;28;20411;-79
2020/12/13 05:02:14;;;;;;;18.83;10.30;;;8.20;93.70;;;;;;5070921;28;20898;-80
2020/12/13 05:04:41;;;;;;;16.07;9.00;;;8.20;93.70;;;;;;5055239;28;20399;-79
2020/12/13 05:07:07;;;;;;;16.83;9.77;;;8.20;93.60;;;;;;5089043;28;20536;-79
2020/12/13 05:09:33;;;;;;;15.57;9.17;;;8.20;93.60;;;;;;5057404;28;20434;-79
2020/12/13 05:11:59;;;;;;;17.37;8.83;;;8.10;93.50;;;;;;5090135;28;20443;-79
2020/12/13 05:14:25;;;;;;;12.33;8.00;;;8.10;93.50;;;;;;5075244;28;20405;-79
2020/12/13 05:17:06;;;;;;;14.77;9.43;;;8.10;93.50;;;;;;5076108;28;20483;-79
2020/12/13 05:19:31;;;;;;;12.17;8.20;;;8.10;93.40;;;;;;5087568;28;20543;-79
2020/12/13 05:21:59;;;;;;;17.80;9.20;;;8.10;93.40;;;;;;5083758;28;20564;-79
2020/12/13 05:24:25;;;;;;;11.13;7.43;;;8.10;93.70;;;;;;5083480;28;20598;-78
2020/12/13 05:27:02;;;;;;;15.77;9.10;;;8.10;93.30;;;;;;5087058;28;20435;-79
2020/12/13 05:29:31;;;;;;;14.83;8.93;;;8.10;93.30;;;;;;5084904;28;20419;-79
2020/12/13 05:32:11;;;;;;;13.30;8.33;;;8.10;93.30;;;;;;5088486;28;20430;-79
2020/12/13 05:34:39;;;;;;;11.83;7.90;;;8.10;93.30;;;;;;5088801;28;20419;-79
2020/12/13 05:37:14;;;;;;;13.93;8.50;;;8.10;93.20;;;;;;5088339;28;20418;-79
2020/12/13 05:39:48;;;;;;;14.07;9.10;;;8.10;93.20;;;;;;5083076;28;20415;-79
2020/12/13 05:42:27;;;;;;;13.40;8.83;;;8.10;93.10;;;;;;5090414;28;20521;-79
2020/12/13 05:52:53;;;;;;;14.47;10.60;;;8.00;93.00;;;;;;5089394;28;20422;-79
2020/12/13 05:55:19;;;;;;;15.13;8.50;;;8.00;93.00;;;;;;5054275;28;20423;-79
2020/12/13 05:57:48;;;;;;;16.70;9.97;;;8.00;93.00;;;;;;5070463;28;20426;-80
2020/12/13 06:00:16;;;;;;;23.03;9.43;;;8.00;92.90;;;;;;5085292;28;20453;-78
2020/12/13 06:02:44;;;;;;;14.93;9.40;;;8.00;92.90;;;;;;5083457;28;20415;-79
2020/12/13 06:05:15;;;;;;;16.00;10.67;;;8.00;92.90;;;;;;5086116;28;20422;-80
2020/12/13 06:07:48;;;;;;;17.87;10.07;;;8.00;92.90;;;;;;5083966;28;20470;-79
2020/12/13 06:10:23;;;;;;;18.70;10.27;;;8.00;92.90;;;;;;5071473;28;20439;-80
2020/12/13 06:13:03;;;;;;;14.73;9.23;;;8.00;92.90;;;;;;5070057;28;20410;-79
2020/12/13 06:15:32;;;;;;;14.97;9.97;;;8.00;93.00;;;;;;5075059;28;20427;-80
2020/12/13 06:17:59;;;;;;;16.43;9.30;;;8.00;93.00;;;;;;5088890;28;20545;-80
2020/12/13 06:20:26;;;;;;;15.97;10.47;;;8.00;93.00;;;;;;5064924;28;20435;-78
2020/12/13 06:22:53;;;;;;;15.80;9.47;;;8.00;93.00;;;;;;5047028;28;20411;-79
2020/12/13 06:25:20;;;;;;;15.77;7.73;;;8.00;93.10;;;;;;5080297;28;20469;-78
2020/12/13 06:27:47;;;;;;;16.47;8.80;;;8.00;93.10;;;;;;5078731;28;20486;-79
2020/12/13 06:30:15;;;;;;;16.87;11.33;;;8.00;93.10;;;;;;5061689;28;20439;-79
2020/12/13 06:32:41;;;;;;;15.00;10.07;;;8.00;93.10;;;;;;5077146;28;20399;-79
2020/12/13 06:35:10;;;;;;;21.60;10.37;;;8.00;93.10;;;;;;5096607;28;20656;-81
2020/12/13 06:37:37;;;;;;;18.53;11.23;;;7.90;93.10;;;;;;5098012;28;20399;-78
2020/12/13 06:40:05;;;;;;;13.77;9.93;;;7.90;93.10;;;;;;5098462;28;20431;-79
2020/12/13 06:42:37;;;;;;;22.90;9.83;;;7.90;93.10;;;;;;5097242;28;20418;-79
2020/12/13 06:45:11;;;;;;;14.10;9.50;;;7.90;93.20;;;;;;5098531;28;20411;-81
2020/12/13 06:47:42;;;;;;;15.20;8.90;;;7.90;93.20;;;;;;5098768;28;20484;-79
2020/12/13 06:50:10;;;;;;;18.30;10.30;;;7.90;93.20;;;;;;5097430;28;20528;-79
2020/12/13 06:52:36;;;;;;;17.63;10.60;;;7.90;93.20;;;;;;5098380;28;20423;-77
2020/12/13 06:55:05;;;;;;;20.93;10.87;;;7.90;93.30;;;;;;5068214;28;20495;-79
2020/12/13 06:57:33;;;;;;;18.03;11.57;;;7.90;93.30;;;;;;5066748;28;20411;-79
2020/12/13 07:00:02;;;;;;;22.20;12.03;;;7.80;93.30;;;;;;5064968;28;20441;-79
2020/12/13 07:02:50;;;;;;;15.67;9.93;;;7.80;93.30;;;;;;5074837;28;20419;-78
2020/12/13 07:05:15;;;;;;;14.87;10.67;;;7.70;93.20;;;;;;5049692;28;20609;-78
2020/12/13 07:07:42;;;;;;;19.40;10.87;;;7.70;93.20;;;;;;5068690;28;20517;-79
2020/12/13 07:10:08;;;;;;;21.40;12.03;;;7.70;93.30;;;;;;5067450;28;20197;-78
2020/12/13 07:12:35;;;;;;;31.30;11.67;;;7.70;93.30;;;;;;5074409;28;20424;-78
2020/12/13 07:15:15;;;;;;;23.23;14.10;;;7.60;93.20;;;;;;5082593;28;20430;-78
2020/12/13 07:17:42;;;;;;;15.27;10.50;;;7.60;93.20;;;;;;5090386;28;20423;-81
2020/12/13 07:20:08;;;;;;;18.03;10.30;;;7.60;93.30;;;;;;5085267;28;20434;-78
2020/12/13 07:22:34;;;;;;;21.57;10.93;;;7.50;93.30;;;;;;5092984;28;20713;-78
2020/12/13 07:25:00;;;;;;;24.03;11.10;;;7.50;93.70;;;;;;5084757;28;20165;-78
2020/12/13 07:27:27;;;;;;;23.97;11.33;;;7.50;93.40;;;;;;5077711;28;20510;-79
2020/12/13 07:29:55;;;;;;;24.73;12.43;;;7.40;93.40;;;;;;5079066;28;20414;-80
2020/12/13 07:32:23;;;;;;;27.73;12.13;;;7.40;93.40;;;;;;5080407;28;20404;-79
2020/12/13 07:34:49;;;;;;;18.53;11.53;;;7.40;93.40;;;;;;5083895;28;20425;-79
2020/12/13 07:37:16;;;;;;;19.73;11.20;;;7.40;93.40;;;;;;5083431;28;20419;-80
2020/12/13 07:39:42;;;;;;;25.03;10.90;;;7.40;93.40;;;;;;5062364;28;20431;-79
2020/12/13 07:42:08;;;;;;;22.00;12.20;;;7.40;93.30;;;;;;5084077;28;20439;-78
2020/12/13 07:44:36;;;;;;;31.53;12.83;;;7.40;93.20;;;;;;5062900;28;20403;-77
2020/12/13 07:47:02;;;;;;;18.80;11.77;;;7.40;93.20;;;;;;5073027;28;20597;-76
2020/12/13 07:49:27;;;;;;;27.20;12.00;;;7.40;93.30;;;;;;5056198;28;20164;-77
2020/12/13 07:51:56;;;;;;;21.90;11.83;;;7.40;93.30;;;;;;5058130;28;20250;-77
2020/12/13 07:54:23;;;;;;;23.80;12.07;;;7.40;93.30;;;;;;5075905;28;20670;-76
2020/12/13 07:56:53;;;;;;;22.57;11.50;;;7.40;93.30;;;;;;5074604;28;20418;-78
2020/12/13 07:59:25;;;;;;;19.33;11.80;;;7.50;93.30;;;;;;5040079;28;20439;-77
2020/12/13 08:01:53;;;;;;;21.40;11.07;;;7.50;93.30;;;;;;5057200;28;20447;-77
2020/12/13 08:04:39;;;;;;;21.07;10.13;;;7.50;93.20;;;;;;5073395;28;20557;-78
2020/12/13 08:07:12;;;;;;;18.90;11.03;;;7.50;93.10;;;;;;5062549;28;20443;-77
2020/12/13 08:09:42;;;;;;;18.80;10.63;;;7.50;93.00;;;;;;5053652;28;20416;-78
2020/12/13 08:12:12;;;;;;;20.23;11.83;;;7.50;92.90;;;;;;5022057;28;20416;-77
2020/12/13 08:14:38;;;;;;;15.60;10.10;;;7.50;93.30;;;;;;5077490;28;20415;-79
2020/12/13 08:17:04;;;;;;;19.57;10.23;;;7.60;92.90;;;;;;5077998;28;20427;-77
2020/12/13 08:19:42;;;;;;;16.57;9.70;;;7.60;92.90;;;;;;5057671;28;20422;-76
2020/12/13 08:22:35;;;;;;;21.63;9.97;;;7.60;92.90;;;;;;5087731;28;20171;-77
2020/12/13 08:25:05;;;;;;;16.33;9.83;;;7.60;92.80;;;;;;5054827;28;20428;-78
2020/12/13 08:27:34;;;;;;;18.03;10.87;;;7.70;92.80;;;;;;5055150;28;20546;-76
2020/12/13 08:30:01;;;;;;;28.30;11.10;;;7.70;92.80;;;;;;5068983;28;20422;-77
2020/12/13 08:32:37;;;;;;;24.30;10.40;;;7.70;92.80;;;;;;5054633;28;20820;-77
2020/12/13 08:35:09;;;;;;;24.53;11.50;;;7.80;92.80;;;;;;5067221;28;20396;-77
2020/12/13 08:37:35;;;;;;;20.87;11.17;;;7.90;92.80;;;;;;5046273;28;20507;-77
2020/12/13 08:40:01;;;;;;;28.33;12.27;;;7.90;92.70;;;;;;5064977;28;20463;-78
2020/12/13 08:42:26;;;;;;;16.67;10.40;;;8.00;92.60;;;;;;5047627;28;20192;-78
2020/12/13 08:44:52;;;;;;;16.67;10.77;;;8.10;92.30;;;;;;5043857;28;20173;-78
2020/12/13 08:47:19;;;;;;;27.30;11.90;;;8.20;92.10;;;;;;5062111;28;20294;-77
2020/12/13 08:49:48;;;;;;;23.23;10.83;;;8.30;91.90;;;;;;5068549;28;20177;-76
2020/12/13 08:52:32;;;;;;;20.70;10.60;;;8.30;91.80;;;;;;5072585;28;20415;-77
2020/12/13 08:55:04;;;;;;;27.27;10.63;;;8.40;92.00;;;;;;5052714;28;20404;-79
2020/12/13 08:57:45;;;;;;;17.83;9.33;;;8.40;91.30;;;;;;5043636;28;20495;-76
2020/12/13 09:00:13;;;;;;;17.40;10.40;;;8.50;91.10;;;;;;5061713;28;20525;-77
2020/12/13 09:02:39;;;;;;;21.93;9.90;;;8.60;91.10;;;;;;5043636;28;20412;-78
2020/12/13 09:05:07;;;;;;;17.07;9.13;;;8.60;90.60;;;;;;5071523;28;20420;-78
2020/12/13 09:07:34;;;;;;;15.10;8.87;;;8.60;90.50;;;;;;5071025;28;20284;-78
2020/12/13 09:10:08;;;;;;;15.10;8.53;;;8.60;90.40;;;;;;5061459;28;20442;-78
2020/12/13 09:12:36;;;;;;;12.57;8.83;;;8.50;90.20;;;;;;5069437;28;21075;-76
2020/12/13 09:15:16;;;;;;;15.73;8.90;;;8.50;90.40;;;;;;5069276;28;20408;-76
2020/12/13 09:17:55;;;;;;;15.60;8.00;;;8.50;90.20;;;;;;5066942;28;20408;-76
2020/12/13 09:20:42;;;;;;;15.17;8.87;;;8.40;90.00;;;;;;5067746;28;20525;-78
2020/12/13 09:23:13;;;;;;;20.27;9.97;;;8.40;89.90;;;;;;5074654;28;20443;-77
2020/12/13 09:25:47;;;;;;;20.47;8.60;;;8.50;89.80;;;;;;5068731;28;20419;-77
2020/12/13 09:28:14;;;;;;;14.40;8.40;;;8.50;89.00;;;;;;5060819;28;20420;-79
2020/12/13 09:30:40;;;;;;;22.20;10.20;;;8.50;88.90;;;;;;5065054;28;20588;-77
2020/12/13 09:33:07;;;;;;;23.97;8.80;;;8.50;88.90;;;;;;5080438;28;20461;-76
2020/12/13 09:35:33;;;;;;;18.43;7.60;;;8.60;88.70;;;;;;5072396;28;20423;-79
2020/12/13 09:38:00;;;;;;;14.57;7.90;;;8.70;88.20;;;;;;5099431;28;20474;-77
2020/12/13 09:40:26;;;;;;;15.10;8.33;;;8.70;87.20;;;;;;5081848;28;20423;-79
2020/12/13 09:42:53;;;;;;;12.00;7.40;;;8.80;86.50;;;;;;5100040;28;20419;-77
2020/12/13 09:45:19;;;;;;;12.40;6.93;;;8.80;86.20;;;;;;5081750;28;20480;-77
2020/12/13 09:47:45;;;;;;;11.13;6.70;;;8.80;85.20;;;;;;5081991;28;20503;-79
2020/12/13 09:50:12;;;;;;;7.40;5.90;;;8.90;85.90;;;;;;5082176;28;20193;-76
2020/12/13 09:52:38;;;;;;;9.07;5.87;;;8.90;85.00;;;;;;5087845;28;20181;-77
2020/12/13 09:55:04;;;;;;;17.73;6.43;;;8.90;84.70;;;;;;5085487;28;20415;-77
2020/12/13 09:57:29;;;;;;;10.13;6.67;;;9.00;83.90;;;;;;5082292;28;20403;-77
2020/12/13 09:59:55;;;;;;;7.60;5.50;;;9.10;82.90;;;;;;5049569;28;20165;-77
2020/12/13 10:02:21;;;;;;;8.53;5.37;;;9.20;82.30;;;;;;5061909;28;20170;-78
2020/12/13 10:04:46;;;;;;;8.40;5.80;;;9.20;81.70;;;;;;5077366;28;20226;-77
2020/12/13 10:07:26;;;;;;;10.77;5.90;;;9.20;81.10;;;;;;5057357;28;20287;-76
2020/12/13 10:09:54;;;;;;;6.17;4.30;;;9.20;80.80;;;;;;5058098;28;20177;-77
2020/12/13 10:12:22;;;;;;;7.43;4.50;;;9.20;80.00;;;;;;5042617;28;20491;-78
2020/12/13 10:14:47;;;;;;;7.40;3.97;;;9.20;80.40;;;;;;5078281;28;20169;-76
2020/12/13 10:17:13;;;;;;;8.43;3.83;;;9.20;80.70;;;;;;5068076;28;20516;-78
2020/12/13 10:19:39;;;;;;;7.00;3.57;;;9.20;78.90;;;;;;5068538;28;20237;-78
2020/12/13 10:22:05;;;;;;;6.63;3.70;;;9.20;78.60;;;;;;5083050;28;20193;-77
2020/12/13 10:24:30;;;;;;;8.47;3.93;;;9.20;78.10;;;;;;5081931;28;20276;-78
2020/12/13 10:26:56;;;;;;;6.87;3.67;;;9.20;78.00;;;;;;5076742;28;20279;-76
2020/12/13 10:29:22;;;;;;;5.83;3.90;;;9.20;78.30;;;;;;5058643;28;20179;-77
2020/12/13 10:31:48;;;;;;;4.23;3.83;;;9.20;77.90;;;;;;5076051;28;20207;-78
2020/12/13 10:34:17;;;;;;;7.70;4.23;;;9.30;77.50;;;;;;5037331;28;20291;-77
2020/12/13 10:36:44;;;;;;;5.33;3.00;;;9.30;77.00;;;;;;5038565;28;20170;-78
2020/12/13 10:39:10;;;;;;;8.60;3.50;;;9.30;76.80;;;;;;5067538;28;20512;-77
2020/12/13 10:41:37;;;;;;;7.90;3.73;;;9.40;76.20;;;;;;5056888;28;20512;-78
2020/12/13 10:44:03;;;;;;;3.70;2.80;;;9.40;76.60;;;;;;5056704;28;20415;-77
2020/12/13 10:46:29;;;;;;;7.03;3.60;;;9.40;76.40;;;;;;5074701;28;20473;-77
2020/12/13 10:48:55;;;;;;;10.53;4.47;;;9.50;76.50;;;;;;5076264;28;20415;-78
2020/12/13 10:51:21;;;;;;;5.77;3.47;;;9.50;76.50;;;;;;5057607;28;20201;-77
2020/12/13 10:53:47;;;;;;;14.53;5.30;;;9.60;76.20;;;;;;5041437;28;20422;-75
2020/12/13 10:56:14;;;;;;;8.60;4.00;;;9.60;76.20;;;;;;5042750;28;20407;-77
2020/12/13 10:58:41;;;;;;;7.17;3.50;;;9.60;76.00;;;;;;5044977;28;20434;-79
2020/12/13 11:01:08;;;;;;;12.27;6.13;;;9.60;76.20;;;;;;5051226;28;20428;-78
2020/12/13 11:03:34;;;;;;;10.17;4.70;;;9.60;75.50;;;;;;5079724;28;20873;-78
2020/12/13 11:06:09;;;;;;;6.57;4.07;;;9.70;75.40;;;;;;5091423;28;20455;-78
2020/12/13 11:08:42;;;;;;;9.47;4.20;;;9.70;75.20;;;;;;5030333;28;20188;-78
2020/12/13 11:11:07;;;;;;;5.13;3.57;;;9.70;73.70;;;;;;5071264;28;20451;-78
2020/12/13 11:13:42;;;;;;;6.40;2.50;;;9.80;73.30;;;;;;5091260;28;20411;-80
2020/12/13 11:16:17;;;;;;;9.23;3.50;;;9.90;73.00;;;;;;5068067;28;20169;-76
2020/12/13 11:18:45;;;;;;;4.80;4.13;;;9.90;72.80;;;;;;5068511;28;20420;-79
2020/12/13 11:21:14;;;;;;;7.93;3.73;;;9.90;72.30;;;;;;5086994;28;20431;-77
2020/12/13 11:23:40;;;;;;;8.33;3.93;;;9.90;72.50;;;;;;5060107;28;20174;-78
2020/12/13 11:26:07;;;;;;;4.77;3.00;;;9.90;72.80;;;;;;5068532;28;20510;-80
2020/12/13 11:28:35;;;;;;;5.97;3.50;;;9.90;73.50;;;;;;5068296;28;20150;-80
2020/12/13 11:31:03;;;;;;;7.17;3.83;;;9.90;73.20;;;;;;5060179;28;20439;-80
2020/12/13 11:33:29;;;;;;;8.03;4.10;;;9.90;73.10;;;;;;5048874;28;20419;-80
2020/12/13 11:36:12;;;;;;;6.40;3.30;;;9.90;73.40;;;;;;5059834;28;20519;-80
2020/12/13 11:39:09;;;;;;;8.83;3.40;;;9.90;73.20;;;;;;5070085;28;20245;-78
2020/12/13 11:42:20;;;;;;;6.37;3.63;;;9.90;72.40;;;;;;5059746;28;20430;-79
2020/12/13 11:45:04;;;;;;;7.23;3.50;;;9.90;71.60;;;;;;5011858;28;20425;-78
2020/12/13 11:50:50;;;;;;;4.47;2.40;;;10.00;71.90;;;;;;5246770;23;21054;-77
2020/12/13 11:54:01;;;;;;;5.47;2.50;;;10.10;69.60;;;;;;5029636;28;20473;-78
2020/12/13 11:57:14;;;;;;;6.70;2.73;;;10.20;68.60;;;;;;5027520;28;20428;-77
2020/12/13 11:59:39;;;;;;;5.70;2.33;;;10.20;68.10;;;;;;5032767;28;20425;-81
2020/12/13 12:05:33;;;;;;;2.60;2.10;;;10.20;66.30;;;;;;5107944;23;20494;-77
2020/12/13 12:08:02;;;;;;;5.43;2.40;;;10.10;66.00;;;;;;5001689;28;20403;-77
2020/12/13 12:10:34;;;;;;;3.43;1.20;;;10.00;65.80;;;;;;5023914;28;20247;-77
2020/12/13 12:13:11;;;;;;;2.07;1.30;;;9.80;66.00;;;;;;5020987;28;20522;-77
2020/12/13 12:16:00;;;;;;;3.10;1.43;;;9.60;66.90;;;;;;5023810;28;20408;-77
2020/12/13 12:18:26;;;;;;;2.90;1.20;;;9.50;66.50;;;;;;5004068;28;20418;-78
2020/12/13 12:23:59;;;;;;;2.90;1.93;;;9.30;67.30;;;;;;5007935;28;20263;-78
2020/12/13 12:26:41;;;;;;;5.37;1.30;;;9.40;66.70;;;;;;5009391;28;20525;-77
2020/12/13 12:29:21;;;;;;;8.20;2.87;;;9.50;65.80;;;;;;5012260;28;20396;-77
2020/12/13 12:31:48;;;;;;;6.03;1.50;;;9.60;64.90;;;;;;5027611;28;20469;-78
2020/12/13 12:34:25;;;;;;;5.47;2.10;;;9.70;63.30;;;;;;5009130;28;20457;-78
2020/12/13 12:36:55;;;;;;;4.90;1.77;;;9.80;62.50;;;;;;5073933;23;20570;-78
2020/12/13 12:39:21;;;;;;;5.13;1.90;;;9.90;62.80;;;;;;5033602;28;20402;-80
2020/12/13 12:41:50;;;;;;;4.30;2.00;;;9.90;62.80;;;;;;5031913;28;20195;-80
2020/12/13 12:44:22;;;;;;;6.50;1.80;;;9.90;62.20;;;;;;5031269;28;20203;-79
2020/12/13 12:46:48;;;;;;;5.73;1.57;;;10.00;60.90;;;;;;5032834;28;20485;-81
2020/12/13 12:49:17;;;;;;;7.90;2.10;;;10.00;60.40;;;;;;5031619;28;20583;-81
2020/12/13 12:51:42;;;;;;;8.40;2.93;;;10.00;60.60;;;;;;5034749;28;20164;-79
2020/12/13 12:54:08;;;;;;;3.67;2.13;;;10.00;60.90;;;;;;5031958;28;20457;-80
2020/12/13 12:56:34;;;;;;;4.20;2.50;;;10.10;60.80;;;;;;5032655;28;20193;-79
2020/12/13 12:59:11;;;;;;;4.10;2.40;;;10.10;60.00;;;;;;5032146;28;20170;-79
2020/12/13 13:01:42;;;;;;;3.80;1.60;;;10.00;60.10;;;;;;5032601;28;20155;-81
2020/12/13 13:04:14;;;;;;;4.37;1.97;;;10.00;59.90;;;;;;5030139;28;20464;-79
2020/12/13 13:09:37;;;;;;;3.43;1.97;;;10.00;59.90;;;;;;5031510;28;20477;-80
2020/12/13 13:12:09;;;;;;;4.43;2.00;;;9.90;61.60;;;;;;5014944;28;20493;-79